Time;durP1;ratioP1;P1;durP2;ratioP2;P2;SDS_P1;SDS_P2;PMS_P1;PMS_P2;Temp;Humidity;BMP_temperature;BMP_pressure;BME280_temperature;BME280_humidity;BME280_pressure;Samples;Min_cycle;Max_cycle;Signal;HPM_P1;HPM_P2
2023/10/02 00:01:53;;;;;;;;;;;15.60;59.80;;;11.27;100.00;96268.28;5026307;28;19916;-51
2023/10/02 00:04:23;;;;;;;;;;;15.60;59.70;;;11.26;100.00;96270.13;5030850;28;19916;-47
2023/10/02 00:07:08;;;;;;;;;;;15.50;59.70;;;11.22;100.00;96277.03;5026333;28;19913;-47
2023/10/02 00:09:38;;;;;;;;;;;15.50;59.70;;;11.15;100.00;96279.06;5015499;28;19916;-47
2023/10/02 00:12:11;;;;;;;;;;;15.50;59.80;;;11.15;100.00;96279.06;5026846;28;19916;-47
2023/10/02 00:14:41;;;;;;;;;;;15.40;59.80;;;11.09;100.00;96282.75;5031487;28;20434;-46
2023/10/02 00:17:13;;;;;;;;;;;15.40;59.80;;;11.05;100.00;96281.66;5017527;28;19934;-44
2023/10/02 00:19:44;;;;;;;;;;;15.40;59.80;;;11.04;100.00;96280.03;5028341;28;20015;-44
2023/10/02 00:22:36;;;;;;;;;;;15.30;59.80;;;10.99;100.00;96272.78;5035018;28;19928;-43
2023/10/02 00:25:51;;;;;;;;;;;15.30;59.90;;;10.94;100.00;96270.06;5031259;28;20007;-44
2023/10/02 00:28:30;;;;;;;;;;;15.30;60.00;;;10.86;100.00;96273.16;5024452;28;19931;-43
2023/10/02 00:30:56;;;;;;;;;;;15.20;60.00;;;10.90;100.00;96276.94;5030154;28;19919;-52
2023/10/02 00:33:27;;;;;;;;;;;15.20;60.10;;;10.85;100.00;96279.56;5026732;28;19909;-46
2023/10/02 00:35:56;;;;;;;;;;;15.20;60.10;;;10.77;100.00;96280.00;5029419;28;20362;-44
2023/10/02 00:38:23;;;;;;;;;;;15.10;60.00;;;10.71;100.00;96275.66;5014683;28;19918;-44
2023/10/02 00:40:49;;;;;;;;;;;15.10;60.10;;;10.70;100.00;96279.38;5030722;28;19908;-45
2023/10/02 00:43:34;;;;;;;;;;;15.00;60.10;;;10.70;100.00;96274.84;5032901;28;19938;-44
2023/10/02 00:45:59;;;;;;;;;;;15.00;60.20;;;10.67;100.00;96275.34;5020027;28;20477;-43
2023/10/02 00:48:33;;;;;;;;;;;14.90;60.20;;;10.68;100.00;96271.63;5029653;28;20024;-50
2023/10/02 00:51:06;;;;;;;;;;;14.90;60.30;;;10.68;100.00;96279.63;5015516;28;19915;-44
2023/10/02 00:53:50;;;;;;;;;;;14.90;60.40;;;10.62;100.00;96277.94;5032580;28;19917;-43
2023/10/02 00:56:19;;;;;;;;;;;14.90;60.50;;;10.62;100.00;96272.59;5033828;28;19917;-44
2023/10/02 00:58:58;;;;;;;;;;;14.90;60.60;;;10.61;100.00;96279.81;5033688;28;20937;-44
2023/10/02 01:01:31;;;;;;;;;;;14.90;60.60;;;10.59;100.00;96283.75;5016144;28;19958;-46
2023/10/02 01:04:10;;;;;;;;;;;14.90;60.60;;;10.54;100.00;96273.84;5034024;28;19913;-45
2023/10/02 01:09:33;;;;;;;;;;;14.80;60.60;;;10.51;100.00;96276.22;5034312;28;19958;-43
2023/10/02 01:12:00;;;;;;;;;;;14.80;60.80;;;10.50;100.00;96280.75;5029065;28;19909;-44
2023/10/02 01:17:16;;;;;;;;;;;14.80;60.90;;;10.53;100.00;96277.59;5033858;28;19954;-45
2023/10/02 01:19:57;;;;;;;;;;;14.70;60.90;;;10.49;100.00;96279.13;5027153;28;20350;-44
2023/10/02 01:22:43;;;;;;;;;;;14.70;60.90;;;10.44;100.00;96278.25;5019340;28;20351;-45
2023/10/02 01:25:13;;;;;;;;;;;14.70;61.00;;;10.41;100.00;96277.69;5030495;28;20260;-50
2023/10/02 01:27:46;;;;;;;;;;;14.70;61.00;;;10.39;100.00;96271.78;5032818;28;19913;-42
2023/10/02 01:30:18;;;;;;;;;;;14.70;61.10;;;10.37;100.00;96275.75;5029154;28;19916;-42
2023/10/02 01:33:14;;;;;;;;;;;14.70;61.10;;;10.34;100.00;96278.91;5033761;28;19909;-43
2023/10/02 01:35:46;;;;;;;;;;;14.70;61.10;;;10.29;100.00;96276.19;5031732;28;19975;-45
2023/10/02 01:38:34;;;;;;;;;;;14.60;61.10;;;10.23;100.00;96272.63;5026944;28;19909;-43
2023/10/02 01:41:06;;;;;;;;;;;14.60;61.10;;;10.19;100.00;96268.84;5010296;28;20015;-47
2023/10/02 01:43:45;;;;;;;;;;;14.60;61.20;;;10.17;100.00;96268.25;5013738;28;19920;-45
2023/10/02 01:46:22;;;;;;;;;;;14.50;61.20;;;10.19;100.00;96271.50;5033605;28;19915;-46
2023/10/02 01:48:50;;;;;;;;;;;14.50;62.00;;;10.19;100.00;96269.63;5027737;28;19912;-45
2023/10/02 01:51:28;;;;;;;;;;;14.50;61.40;;;10.18;100.00;96262.72;5033042;28;19916;-47
2023/10/02 01:53:56;;;;;;;;;;;14.50;61.40;;;10.13;100.00;96273.28;5029724;28;19921;-43
2023/10/02 01:56:34;;;;;;;;;;;14.50;61.40;;;10.15;100.00;96281.00;5031820;28;19951;-46
2023/10/02 01:59:09;;;;;;;;;;;14.50;61.50;;;10.17;100.00;96270.94;5015741;28;19919;-46
2023/10/02 02:01:58;;;;;;;;;;;14.50;61.60;;;10.15;100.00;96273.84;5011075;28;19965;-44
2023/10/02 02:04:28;;;;;;;;;;;14.50;61.60;;;10.13;100.00;96273.28;5032844;28;19909;-45
2023/10/02 02:06:57;;;;;;;;;;;14.40;61.50;;;10.07;100.00;96268.13;5028737;28;19909;-44
2023/10/02 02:09:31;;;;;;;;;;;14.40;61.60;;;10.08;100.00;96270.53;5032976;28;19909;-45
2023/10/02 02:12:10;;;;;;;;;;;14.40;61.60;;;10.07;100.00;96271.59;5028883;28;19908;-45
2023/10/02 02:14:50;;;;;;;;;;;14.40;61.60;;;10.07;100.00;96270.78;5031848;28;20325;-43
2023/10/02 02:17:24;;;;;;;;;;;14.40;61.70;;;10.03;100.00;96267.81;5032284;28;19969;-45
2023/10/02 02:19:51;;;;;;;;;;;14.30;61.70;;;10.01;100.00;96275.22;5025550;28;19965;-46
2023/10/02 02:22:26;;;;;;;;;;;14.40;61.70;;;9.96;100.00;96275.13;5014942;28;19921;-44
2023/10/02 02:24:58;;;;;;;;;;;14.30;61.70;;;9.96;100.00;96281.28;5030349;28;19909;-45
2023/10/02 02:27:25;;;;;;;;;;;14.30;61.80;;;9.92;100.00;96280.16;5020315;28;19935;-44
2023/10/02 02:29:56;;;;;;;;;;;14.30;61.80;;;9.88;100.00;96279.03;5011784;28;19912;-44
2023/10/02 02:32:36;;;;;;;;;;;14.30;61.80;;;9.89;100.00;96275.31;5033085;28;19909;-45
2023/10/02 02:35:09;;;;;;;;;;;14.30;61.80;;;9.91;100.00;96283.06;5032697;28;19916;-44
2023/10/02 02:37:34;;;;;;;;;;;14.20;61.80;;;9.89;100.00;96272.66;5019026;28;19947;-44
2023/10/02 02:40:22;;;;;;;;;;;14.20;61.90;;;9.87;100.00;96281.91;5020014;28;19913;-43
2023/10/02 02:42:51;;;;;;;;;;;14.20;61.90;;;9.85;100.00;96273.41;5012125;28;19915;-45
2023/10/02 02:45:28;;;;;;;;;;;14.20;62.00;;;9.83;100.00;96270.97;5032268;28;19944;-47
2023/10/02 02:47:57;;;;;;;;;;;14.20;62.00;;;9.81;100.00;96270.41;5026995;28;19966;-45
2023/10/02 02:50:28;;;;;;;;;;;14.20;62.10;;;9.81;100.00;96278.41;5024604;28;19915;-45
2023/10/02 02:55:42;;;;;;;;;;;14.10;62.10;;;9.76;100.00;96272.97;5021671;28;19915;-43
2023/10/02 02:58:08;;;;;;;;;;;14.10;62.10;;;9.73;100.00;96273.47;5029668;28;20058;-43
2023/10/02 03:00:35;;;;;;;;;;;14.10;62.10;;;9.70;100.00;96273.94;5028479;28;19919;-45
2023/10/02 03:03:02;;;;;;;;;;;14.10;62.20;;;9.69;100.00;96275.81;5032106;28;19915;-42
2023/10/02 03:05:38;;;;;;;;;;;14.10;62.20;;;9.72;100.00;96274.53;5031979;28;19999;-44
2023/10/02 03:08:05;;;;;;;;;;;14.10;62.30;;;9.72;100.00;96271.88;5029060;28;20263;-46
2023/10/02 03:10:36;;;;;;;;;;;14.10;62.30;;;9.73;100.00;96268.94;5031896;28;19962;-42
2023/10/02 03:13:03;;;;;;;;;;;14.10;62.30;;;9.70;100.00;96272.09;5025827;28;20426;-44
2023/10/02 03:15:48;;;;;;;;;;;14.00;62.30;;;9.70;100.00;96276.63;5014180;28;20263;-44
2023/10/02 03:18:31;;;;;;;;;;;14.00;62.40;;;9.73;100.00;96274.28;5027555;28;20030;-43
2023/10/02 03:23:42;;;;;;;;;;;14.00;62.50;;;9.68;100.00;96274.22;5031010;28;20007;-48
2023/10/02 03:26:52;;;;;;;;;;;14.00;62.50;;;9.62;100.00;96269.84;5026739;28;19909;-43
2023/10/02 03:29:21;;;;;;;;;;;14.00;62.50;;;9.65;100.00;96274.69;5014272;28;19916;-44
2023/10/02 03:31:51;;;;;;;;;;;14.00;62.60;;;9.63;100.00;96275.97;5013575;28;19917;-46
2023/10/02 03:34:27;;;;;;;;;;;14.00;62.60;;;9.61;100.00;96273.53;5031364;28;20354;-46
2023/10/02 03:37:35;;;;;;;;;;;14.00;62.60;;;9.63;100.00;96274.13;5027798;28;20233;-45
2023/10/02 03:39:59;;;;;;;;;;;14.00;62.60;;;9.57;100.00;96271.63;5014014;28;20419;-43
2023/10/02 03:42:32;;;;;;;;;;;13.90;62.60;;;9.52;100.00;96268.84;5027632;28;20379;-48
2023/10/02 03:45:04;;;;;;;;;;;13.90;62.60;;;9.45;100.00;96261.84;5031231;28;20390;-46
2023/10/02 03:47:33;;;;;;;;;;;13.90;62.50;;;9.40;100.00;96261.78;5026138;28;19909;-52
2023/10/02 03:50:00;;;;;;;;;;;13.90;62.50;;;9.39;100.00;96264.66;5028659;28;19961;-45
2023/10/02 03:52:32;;;;;;;;;;;13.80;62.50;;;9.37;100.00;96266.75;5031231;28;19990;-45
2023/10/02 03:55:10;;;;;;;;;;;13.80;62.60;;;9.36;100.00;96257.97;5026646;28;20383;-47
2023/10/02 03:57:49;;;;;;;;;;;13.80;62.60;;;9.36;100.00;96259.81;5029433;28;19966;-45
2023/10/02 04:00:19;;;;;;;;;;;13.70;62.70;;;9.36;100.00;96259.81;5021409;28;27225;-45
2023/10/02 04:02:51;;;;;;;;;;;13.70;62.80;;;9.35;100.00;96259.03;5031180;28;19919;-43
2023/10/02 04:05:32;;;;;;;;;;;13.70;62.90;;;9.31;100.00;96255.22;5013605;28;19912;-43
2023/10/02 04:08:12;;;;;;;;;;;13.70;62.90;;;9.29;100.00;96246.69;5027287;28;20329;-46
2023/10/02 04:10:55;;;;;;;;;;;13.70;63.00;;;9.35;100.00;96259.03;5031127;28;19909;-50
2023/10/02 04:13:27;;;;;;;;;;;13.70;63.00;;;9.32;100.00;96251.53;5019278;28;19940;-44
2023/10/02 04:15:53;;;;;;;;;;;13.70;63.00;;;9.30;100.00;96247.47;5031391;28;19908;-43
2023/10/02 04:21:12;;;;;;;;;;;13.70;63.10;;;9.40;100.00;96251.13;5029494;28;19936;-44
2023/10/02 04:23:48;;;;;;;;;;;13.70;63.30;;;9.45;100.00;96255.72;5028788;28;20003;-46
2023/10/02 04:26:21;;;;;;;;;;;13.70;63.30;;;9.43;100.00;96252.50;5029933;28;19912;-45
2023/10/02 04:28:58;;;;;;;;;;;13.70;63.30;;;9.40;100.00;96250.31;5030313;28;19920;-42
2023/10/02 04:31:34;;;;;;;;;;;13.70;63.20;;;9.38;100.00;96253.22;5028079;28;19916;-42
2023/10/02 04:34:15;;;;;;;;;;;13.70;63.20;;;9.35;100.00;96253.69;5030495;28;19908;-42
2023/10/02 04:36:43;;;;;;;;;;;13.70;63.20;;;9.39;100.00;96254.81;5027081;28;19915;-44
2023/10/02 04:44:56;;;;;;;;;;;13.80;63.40;;;9.40;100.00;96261.78;5029790;28;19916;-42
2023/10/02 04:47:26;;;;;;;;;;;13.70;63.40;;;9.40;100.00;96260.94;5030411;28;19952;-44
2023/10/02 04:52:56;;;;;;;;;;;13.80;63.40;;;9.38;100.00;96255.88;5030812;28;19932;-43
2023/10/02 04:55:27;;;;;;;;;;;13.80;63.40;;;9.37;100.00;96259.59;5013983;28;19912;-43
2023/10/02 04:58:14;;;;;;;;;;;13.80;63.50;;;9.33;100.00;96255.78;5030417;28;20011;-43
2023/10/02 05:03:53;;;;;;;;;;;13.80;64.30;;;9.35;100.00;96264.34;5033899;28;19965;-42
2023/10/02 05:11:55;;;;;;;;;;;13.70;63.50;;;9.36;100.00;96259.81;5011250;28;19917;-44
2023/10/02 05:14:27;;;;;;;;;;;13.70;63.60;;;9.36;100.00;96259.81;5017009;28;19944;-43
2023/10/02 05:17:19;;;;;;;;;;;13.80;63.60;;;9.39;100.00;96268.13;5014731;28;20383;-42
2023/10/02 05:19:57;;;;;;;;;;;13.80;63.60;;;9.33;100.00;96265.63;5010691;28;19924;-47
2023/10/02 05:22:30;;;;;;;;;;;13.70;63.50;;;9.34;100.00;96268.06;5016120;28;19908;-43
2023/10/02 05:25:04;;;;;;;;;;;13.80;63.60;;;9.37;100.00;96272.88;5020322;28;20003;-43
2023/10/02 05:27:37;;;;;;;;;;;13.80;63.60;;;9.34;100.00;96273.38;5032995;28;19966;-42
2023/10/02 05:30:12;;;;;;;;;;;13.80;63.60;;;9.31;100.00;96267.69;5030447;28;19917;-45
2023/10/02 05:32:41;;;;;;;;;;;13.80;63.60;;;9.32;100.00;96270.13;5033730;28;19908;-43
2023/10/02 05:37:47;;;;;;;;;;;13.80;63.50;;;9.32;100.00;96270.13;5029417;28;20486;-43
2023/10/02 05:43:55;;;;;;;;;;;13.80;63.40;;;9.39;100.00;96275.28;5012203;28;19950;-45
2023/10/02 05:50:53;;;;;;;;;;;13.90;63.50;;;9.43;100.00;96279.06;5032466;28;19923;-44
2023/10/02 05:53:26;;;;;;;;;;;13.90;63.50;;;9.44;100.00;96275.41;5029047;28;19908;-46
2023/10/02 05:58:41;;;;;;;;;;;14.00;63.50;;;9.54;100.00;96285.41;5032645;28;19947;-42
2023/10/02 06:01:23;;;;;;;;;;;14.10;64.40;;;9.50;100.00;96282.41;5029836;28;20387;-43
2023/10/02 06:04:00;;;;;;;;;;;14.10;63.50;;;9.57;100.00;96277.75;5032858;28;20019;-41
2023/10/02 06:06:28;;;;;;;;;;;14.10;63.40;;;9.56;100.00;96283.28;5029076;28;20286;-48
2023/10/02 06:09:20;;;;;;;;;;;14.20;63.50;;;9.63;100.00;96281.28;5018131;23;19982;-52
2023/10/02 06:12:05;;;;;;;;;;;14.20;63.50;;;9.77;100.00;96277.25;4985416;28;19918;-47
2023/10/02 06:14:38;;;;;;;;;;;14.30;63.60;;;9.86;100.00;96280.31;5002426;28;19967;-53
2023/10/02 06:17:10;;;;;;;;;;;14.40;63.60;;;9.95;100.00;96279.66;4992454;28;19909;-52
2023/10/02 06:19:42;;;;;;;;;;;14.50;63.80;;;10.01;100.00;96285.06;4968628;28;19920;-52
2023/10/02 06:22:13;;;;;;;;;;;14.60;63.50;;;10.08;100.00;96286.50;4974008;28;19932;-51
2023/10/02 06:24:40;;;;;;;;;;;14.60;63.50;;;10.15;100.00;96286.34;4969926;28;19910;-54
2023/10/02 06:27:16;;;;;;;;;;;14.70;63.50;;;10.23;100.00;96295.78;4960968;28;19910;-47
2023/10/02 06:29:51;;;;;;;;;;;14.80;63.50;;;10.28;100.00;96295.84;4985968;28;19910;-47
2023/10/02 06:32:20;;;;;;;;;;;14.80;63.40;;;10.33;100.00;96304.72;4973195;28;19981;-49
2023/10/02 06:34:47;;;;;;;;;;;14.90;63.30;;;10.41;100.00;96298.19;4973504;28;19917;-48
2023/10/02 06:37:25;;;;;;;;;;;15.00;63.30;;;10.48;100.00;96301.47;4968142;28;20273;-50
2023/10/02 06:40:14;;;;;;;;;;;15.10;64.10;;;10.56;100.00;96294.91;4973112;28;19917;-52
2023/10/02 06:42:48;;;;;;;;;;;15.10;63.20;;;10.62;100.00;96297.41;4961298;28;19921;-47
2023/10/02 06:45:15;;;;;;;;;;;15.30;63.20;;;10.70;100.00;96296.16;4988444;28;20398;-48
2023/10/02 06:47:41;;;;;;;;;;;15.40;63.20;;;10.77;100.00;96304.78;4971422;28;19921;-53
2023/10/02 06:52:51;;;;;;;;;;;15.50;62.90;;;10.91;100.00;96304.44;4986472;28;20387;-45
2023/10/02 06:55:17;;;;;;;;;;;15.60;62.90;;;11.00;100.00;96313.56;4986211;28;19917;-50
2023/10/02 06:57:49;;;;;;;;;;;15.80;62.80;;;11.11;100.00;96308.09;4973313;28;19910;-52
2023/10/02 07:00:25;;;;;;;;;;;15.90;62.70;;;11.24;100.00;96308.78;4968517;28;19918;-52
2023/10/02 07:02:57;;;;;;;;;;;16.20;63.40;;;11.43;100.00;96307.38;4964645;28;20372;-50
2023/10/02 07:05:32;;;;;;;;;;;16.40;62.40;;;11.76;100.00;96311.69;4963353;28;19917;-53
2023/10/02 07:08:27;;;;;;;;;;;16.80;62.10;;;12.13;100.00;96308.28;4970140;28;19910;-49
2023/10/02 07:10:53;;;;;;;;;;;17.20;61.90;;;12.59;100.00;96308.53;5008396;28;19916;-52
2023/10/02 07:13:22;;;;;;;;;;;17.70;61.60;;;13.05;100.00;96307.94;4991910;28;20368;-54
2023/10/02 07:15:57;;;;;;;;;;;18.10;61.30;;;13.51;100.00;96302.75;5012262;28;19917;-54
2023/10/02 07:18:42;;;;;;;;;;;18.60;61.00;;;13.89;100.00;96306.81;5006909;28;19986;-54
2023/10/02 07:21:07;;;;;;;;;;;19.10;60.70;;;14.21;96.32;96306.50;5012010;28;20003;-53
2023/10/02 07:23:44;;;;;;;;;;;19.50;60.20;;;14.47;89.27;96309.94;5011706;28;20012;-50
2023/10/02 07:26:45;;;;;;;;;;;19.90;59.90;;;14.78;90.74;96318.75;5009381;28;19909;-52
2023/10/02 07:29:07;;;;;;;;;;;20.20;59.40;;;15.10;86.09;96314.88;5011065;28;19909;-51
2023/10/02 07:31:34;;;;;;;;;;;20.60;59.10;;;15.43;81.93;96308.00;5007893;28;19982;-48
2023/10/02 07:34:02;;;;;;;;;;;20.90;58.70;;;15.85;85.17;96305.88;5011302;28;19909;-50
2023/10/02 07:36:33;;;;;;;;;;;21.40;59.00;;;16.26;80.09;96310.91;5008085;28;19909;-52
2023/10/02 07:39:00;;;;;;;;;;;21.80;58.10;;;16.69;75.32;96309.13;5009698;28;19920;-50
2023/10/02 07:41:28;;;;;;;;;;;22.20;57.70;;;16.98;73.62;96305.63;5011426;28;19909;-51
2023/10/02 07:44:07;;;;;;;;;;;22.60;57.30;;;17.40;71.80;96304.81;5004067;28;20062;-52
2023/10/02 07:46:36;;;;;;;;;;;23.00;56.80;;;17.75;67.72;96313.47;5004800;28;19940;-49
2023/10/02 07:49:04;;;;;;;;;;;23.30;56.40;;;18.00;67.22;96307.72;4990043;28;20007;-54
2023/10/02 07:51:37;;;;;;;;;;;23.70;55.80;;;18.32;64.95;96316.09;5011578;28;19916;-52
2023/10/02 07:54:06;;;;;;;;;;;24.00;55.40;;;18.66;62.53;96311.16;5009753;28;19914;-53
2023/10/02 07:56:33;;;;;;;;;;;24.40;54.90;;;18.90;61.66;96316.44;5011356;28;20383;-53
2023/10/02 07:59:01;;;;;;;;;;;24.70;54.40;;;19.27;60.93;96317.28;5010567;28;19916;-52
2023/10/02 08:01:28;;;;;;;;;;;24.90;53.90;;;19.66;58.86;96317.88;5007519;28;19962;-53
2023/10/02 08:03:55;;;;;;;;;;;25.20;53.60;;;19.94;58.16;96321.28;5011061;28;20440;-52
2023/10/02 08:06:33;;;;;;;;;;;25.60;53.30;;;20.27;55.93;96316.41;5008116;28;19999;-51
2023/10/02 08:11:52;;;;;;;;;;;26.20;52.40;;;20.98;55.54;96314.56;5000370;28;19916;-53
2023/10/02 08:18:16;;;;;;;;;;;26.90;51.70;;;21.55;53.19;96315.69;5011554;28;19915;-55
2023/10/02 08:22:51;;;;;;;;;;;27.70;50.80;;;22.07;51.24;96316.50;5011126;28;19920;-53
2023/10/02 08:25:17;;;;;;;;;;;28.00;50.30;;;22.36;51.25;96310.41;5008016;28;19963;-54
2023/10/02 08:27:46;;;;;;;;;;;28.30;50.60;;;22.59;50.65;96311.03;5011082;28;19910;-54
2023/10/02 08:30:27;;;;;;;;;;;28.60;50.30;;;22.67;49.58;96309.38;4989232;28;20364;-52
2023/10/02 08:33:18;;;;;;;;;;;28.90;49.30;;;22.91;49.96;96314.25;5008256;28;20327;-53
2023/10/02 08:35:46;;;;;;;;;;;29.20;49.40;;;23.32;49.32;96308.16;5007547;28;19909;-55
2023/10/02 08:38:26;;;;;;;;;;;29.60;48.50;;;23.52;47.02;96314.75;5009160;28;20003;-54
2023/10/02 08:41:02;;;;;;;;;;;29.80;48.10;;;23.68;47.34;96319.59;5012591;28;19913;-54
2023/10/02 08:43:32;;;;;;;;;;;30.10;47.70;;;23.86;47.83;96309.44;5008428;28;20426;-52
2023/10/02 08:45:59;;;;;;;;;;;30.30;47.30;;;24.08;46.80;96311.00;5011511;28;19909;-52
2023/10/02 08:48:26;;;;;;;;;;;30.60;47.00;;;24.16;46.52;96312.84;5003993;28;19909;-52
2023/10/02 08:50:58;;;;;;;;;;;30.70;46.60;;;24.39;45.72;96308.63;5014892;28;19908;-55
2023/10/02 08:53:26;;;;;;;;;;;30.90;46.30;;;24.62;45.64;96308.25;5014739;28;20015;-54
2023/10/02 08:56:00;;;;;;;;;;;31.10;46.10;;;24.72;45.13;96301.56;4992250;28;20376;-51
2023/10/02 08:58:27;;;;;;;;;;;31.40;45.90;;;25.00;44.57;96305.22;5014087;28;19909;-54
2023/10/02 09:03:42;;;;;;;;;;;31.70;45.20;;;25.46;41.31;96305.94;5014481;28;19909;-54
2023/10/02 09:06:35;;;;;;;;;;;32.00;44.80;;;25.49;42.07;96299.00;5011679;28;19920;-54
2023/10/02 09:11:52;;;;;;;;;;;32.30;44.00;;;25.82;42.55;96299.66;5011920;28;19955;-52
2023/10/02 09:14:22;;;;;;;;;;;32.50;43.80;;;25.90;41.19;96308.81;5013014;28;19917;-53
2023/10/02 09:17:15;;;;;;;;;;;32.70;43.40;;;26.17;41.54;96299.06;5014445;28;19939;-56
2023/10/02 09:19:49;;;;;;;;;;;32.80;43.10;;;26.36;39.68;96292.94;5004182;28;19944;-54
2023/10/02 09:22:20;;;;;;;;;;;33.00;42.90;;;26.56;39.29;96288.41;5013955;28;20306;-55
2023/10/02 09:24:58;;;;;;;;;;;33.20;42.50;;;26.74;40.27;96286.16;5011236;28;20364;-52
2023/10/02 09:27:38;;;;;;;;;;;33.30;42.10;;;26.63;40.16;96283.13;5014038;28;19948;-51
2023/10/02 09:30:36;;;;;;;;;;;33.40;42.00;;;26.74;40.26;96280.69;5010091;28;20051;-54
2023/10/02 09:33:24;;;;;;;;;;;33.60;41.80;;;26.89;40.41;96273.63;5000520;28;19909;-51
2023/10/02 09:35:52;;;;;;;;;;;33.80;41.50;;;26.95;39.30;96278.50;4991246;28;19963;-55
2023/10/02 09:38:22;;;;;;;;;;;34.00;41.20;;;27.08;39.31;96272.91;5012343;28;19928;-54
2023/10/02 09:40:58;;;;;;;;;;;34.20;41.60;;;27.08;40.11;96270.97;4988366;28;19913;-54
2023/10/02 09:43:35;;;;;;;;;;;34.30;40.60;;;27.27;39.97;96269.47;5010882;28;19988;-52
2023/10/02 09:46:15;;;;;;;;;;;34.50;40.40;;;27.60;41.01;96267.09;5007647;28;19979;-55
2023/10/02 09:49:07;;;;;;;;;;;34.70;40.20;;;27.62;40.38;96267.53;5010354;28;19936;-56
2023/10/02 09:52:10;;;;;;;;;;;34.90;39.90;;;27.81;39.90;96266.00;4999484;28;20372;-54
2023/10/02 09:54:51;;;;;;;;;;;35.00;39.80;;;28.06;39.55;96261.81;4997830;28;19913;-52
2023/10/02 09:57:29;;;;;;;;;;;35.20;39.60;;;28.34;39.60;96260.78;4995680;28;19955;-53
2023/10/02 09:59:57;;;;;;;;;;;35.40;39.50;;;28.40;38.92;96261.28;4993559;28;20000;-53
2023/10/02 10:05:05;;;;;;;;;;;35.80;38.90;;;28.92;38.58;96254.34;5013560;28;20382;-53
2023/10/02 10:10:48;;;;;;;;;;;36.30;38.40;;;29.03;35.37;96252.59;5007178;28;20019;-54
2023/10/02 10:13:36;;;;;;;;;;;36.50;38.20;;;29.25;35.20;96257.25;5008828;28;20016;-52
2023/10/02 10:16:20;;;;;;;;;;;36.50;37.60;;;29.28;35.49;96242.00;5010537;28;19956;-51
2023/10/02 10:21:56;;;;;;;;;;;36.70;37.20;;;29.34;35.90;96242.50;5013288;28;19909;-53
2023/10/02 10:25:22;;;;;;;;;;;36.80;37.10;;;29.23;35.77;96232.13;5009569;28;20332;-53
2023/10/02 10:27:54;;;;;;;;;;;37.00;36.80;;;29.36;36.67;96229.16;5005288;28;19913;-56
2023/10/02 10:30:24;;;;;;;;;;;37.20;36.60;;;29.50;37.08;96227.41;4991723;28;19963;-54
2023/10/02 10:35:51;;;;;;;;;;;37.50;36.30;;;29.96;36.14;96224.50;5009962;28;19909;-48
2023/10/02 10:38:26;;;;;;;;;;;37.60;36.00;;;30.07;36.46;96219.13;5011459;28;19908;-52
2023/10/02 10:40:59;;;;;;;;;;;37.70;35.80;;;30.22;36.02;96211.06;5010753;28;19913;-56
2023/10/02 10:43:44;;;;;;;;;;;37.80;35.70;;;30.23;36.53;96212.63;5004912;28;19909;-51
2023/10/02 10:46:21;;;;;;;;;;;37.90;35.50;;;30.43;36.22;96212.06;5010811;28;19962;-51
2023/10/02 10:49:26;;;;;;;;;;;38.10;35.40;;;30.50;35.83;96208.59;4999999;28;19909;-52
2023/10/02 10:51:52;;;;;;;;;;;38.30;35.20;;;30.72;34.97;96209.56;5012351;28;19909;-55
2023/10/02 10:54:22;;;;;;;;;;;38.40;35.00;;;30.54;36.88;96212.16;5008830;28;20363;-56
2023/10/02 10:57:27;;;;;;;;;;;38.50;34.50;;;30.57;36.74;96207.84;5003170;28;19913;-52
2023/10/02 11:03:19;;;;;;;;;;;38.70;34.40;;;30.50;36.68;96208.59;5009610;28;20445;-51
2023/10/02 11:05:45;;;;;;;;;;;38.80;34.10;;;30.47;36.59;96201.09;5000572;28;20814;-51
2023/10/02 11:08:25;;;;;;;;;;;38.80;34.00;;;30.21;37.18;96196.53;4992541;28;19928;-51
2023/10/02 11:11:11;;;;;;;;;;;38.80;34.00;;;30.76;36.05;96193.09;5012169;28;19913;-51
2023/10/02 11:13:51;;;;;;;;;;;38.90;33.90;;;30.88;36.23;96204.59;5005102;28;19909;-51
2023/10/02 11:16:36;;;;;;;;;;;39.00;33.90;;;31.05;35.10;96202.34;5010659;28;19954;-52
2023/10/02 11:22:15;;;;;;;;;;;39.20;33.50;;;30.80;33.78;96194.72;5012379;28;19935;-53
2023/10/02 11:24:41;;;;;;;;;;;39.30;33.10;;;30.47;35.07;96195.59;4998266;28;19920;-54
2023/10/02 11:27:11;;;;;;;;;;;39.20;32.80;;;30.51;35.58;96190.91;5011703;28;19990;-53
2023/10/02 11:29:42;;;;;;;;;;;39.20;32.40;;;30.76;34.39;96179.34;5011689;28;19908;-55
2023/10/02 11:32:27;;;;;;;;;;;39.20;32.40;;;30.54;35.03;96179.16;5009052;28;19952;-56
2023/10/02 11:35:03;;;;;;;;;;;39.30;32.50;;;30.97;35.06;96179.53;5011839;28;19909;-52
2023/10/02 11:37:29;;;;;;;;;;;39.30;32.30;;;31.40;34.26;96171.56;4997825;28;19909;-54
2023/10/02 11:39:56;;;;;;;;;;;39.50;32.50;;;31.53;33.23;96170.03;5009936;28;19913;-49
2023/10/02 11:42:23;;;;;;;;;;;39.60;32.30;;;31.51;33.84;96169.63;5009147;28;19978;-53
2023/10/02 11:44:49;;;;;;;;;;;39.80;32.00;;;31.59;33.71;96167.72;5011724;28;19916;-48
2023/10/02 11:47:15;;;;;;;;;;;39.90;31.60;;;31.64;33.75;96161.81;5011031;28;19912;-49
2023/10/02 11:49:42;;;;;;;;;;;39.90;32.10;;;31.97;33.77;96160.00;5009642;28;19913;-48
2023/10/02 11:52:09;;;;;;;;;;;40.00;31.50;;;31.89;33.46;96156.41;5011437;28;19909;-52
2023/10/02 11:54:39;;;;;;;;;;;40.20;31.50;;;31.79;34.02;96146.13;5007811;28;19936;-51
2023/10/02 11:57:08;;;;;;;;;;;40.30;31.40;;;31.89;33.71;96145.41;5011179;28;19948;-48
2023/10/02 11:59:41;;;;;;;;;;;40.50;31.40;;;32.08;33.39;96146.22;5011166;28;19921;-50
2023/10/02 12:02:11;;;;;;;;;;;40.60;31.30;;;31.89;32.60;96134.38;5009211;28;19916;-49
2023/10/02 12:04:38;;;;;;;;;;;40.70;31.20;;;32.00;32.94;96128.91;5011562;28;19909;-49
2023/10/02 12:07:05;;;;;;;;;;;40.80;31.00;;;32.30;32.41;96136.03;5009244;28;20018;-50
2023/10/02 12:09:33;;;;;;;;;;;41.00;30.70;;;32.64;32.08;96130.94;5006033;28;20378;-53
2023/10/02 12:12:00;;;;;;;;;;;41.00;30.40;;;32.89;31.04;96128.94;5001139;28;19909;-52
2023/10/02 12:14:28;;;;;;;;;;;41.10;30.50;;;32.92;31.07;96130.13;5008510;28;20383;-51
2023/10/02 12:17:00;;;;;;;;;;;41.20;30.40;;;33.02;31.23;96123.81;5011574;28;19909;-52
2023/10/02 12:19:32;;;;;;;;;;;41.30;30.00;;;33.12;31.57;96124.97;5008392;28;19921;-47
2023/10/02 12:21:59;;;;;;;;;;;41.30;29.80;;;33.06;31.69;96123.78;5010938;28;19909;-54
2023/10/02 12:24:25;;;;;;;;;;;41.40;29.80;;;32.99;31.90;96115.53;5008866;28;20352;-47
2023/10/02 12:26:52;;;;;;;;;;;41.50;29.70;;;32.95;31.27;96113.53;4984339;28;19913;-53
2023/10/02 12:29:19;;;;;;;;;;;41.50;29.60;;;32.98;31.63;96102.94;5009821;28;20378;-48
2023/10/02 12:31:45;;;;;;;;;;;41.50;29.60;;;33.11;32.46;96106.84;5008605;28;20387;-53
2023/10/02 12:34:13;;;;;;;;;;;41.60;29.60;;;32.85;31.49;96100.56;5010901;28;20360;-49
2023/10/02 12:36:40;;;;;;;;;;;41.70;29.60;;;33.06;32.58;96105.28;5007193;28;19916;-54
2023/10/02 12:39:10;;;;;;;;;;;41.80;29.60;;;33.05;31.60;96095.41;4993307;28;19916;-51
2023/10/02 12:41:36;;;;;;;;;;;41.90;29.50;;;33.05;31.33;96098.19;5011107;28;19917;-49
2023/10/02 12:44:02;;;;;;;;;;;42.10;29.40;;;33.25;32.07;96093.00;5003220;28;19909;-52
2023/10/02 12:46:31;;;;;;;;;;;42.20;29.30;;;33.55;32.19;96091.72;5010859;28;20279;-52
2023/10/02 12:48:58;;;;;;;;;;;42.40;29.30;;;33.88;31.64;96092.31;5007005;28;19932;-55
2023/10/02 12:51:30;;;;;;;;;;;42.50;29.20;;;33.93;31.27;96087.13;5011245;28;20426;-53
2023/10/02 12:53:55;;;;;;;;;;;42.70;29.20;;;34.06;30.61;96084.72;5008059;28;19974;-50
2023/10/02 12:56:23;;;;;;;;;;;42.80;28.90;;;34.07;30.62;96087.09;5010474;28;19909;-53
2023/10/02 12:58:54;;;;;;;;;;;42.80;28.80;;;34.07;29.41;96084.31;5010143;28;19947;-48
2023/10/02 13:01:27;;;;;;;;;;;42.70;28.60;;;34.01;30.17;96074.06;5007544;28;20348;-50
2023/10/02 13:03:59;;;;;;;;;;;42.60;28.50;;;33.51;30.08;96069.63;5010977;28;20000;-53
2023/10/02 13:06:27;;;;;;;;;;;42.50;28.60;;;33.18;30.58;96062.66;5007789;28;19916;-52